sensor_id;sensor_type;location;lat;lon;timestamp;P1;durP1;ratioP1;P2;durP2;ratioP2
63818;SDS011;49970;54.976;73.248;2022-10-31T00:01:53;39.05;;;15.82;;
63818;SDS011;49970;54.976;73.248;2022-10-31T00:04:19;30.48;;;15.52;;
63818;SDS011;49970;54.976;73.248;2022-10-31T00:06:45;28.42;;;16.13;;
63818;SDS011;49970;54.976;73.248;2022-10-31T00:09:11;29.88;;;15.88;;
63818;SDS011;49970;54.976;73.248;2022-10-31T00:11:38;25.80;;;15.68;;
63818;SDS011;49970;54.976;73.248;2022-10-31T00:14:04;20.58;;;14.15;;
63818;SDS011;49970;54.976;73.248;2022-10-31T00:16:30;26.92;;;14.98;;
63818;SDS011;49970;54.976;73.248;2022-10-31T00:18:58;24.83;;;15.80;;
63818;SDS011;49970;54.976;73.248;2022-10-31T00:21:31;25.08;;;15.98;;
63818;SDS011;49970;54.976;73.248;2022-10-31T00:23:57;26.33;;;16.45;;
63818;SDS011;49970;54.976;73.248;2022-10-31T00:26:26;27.02;;;14.40;;
63818;SDS011;49970;54.976;73.248;2022-10-31T00:28:54;30.15;;;16.30;;
63818;SDS011;49970;54.976;73.248;2022-10-31T00:31:20;33.22;;;15.40;;
63818;SDS011;49970;54.976;73.248;2022-10-31T00:33:46;22.20;;;14.18;;
63818;SDS011;49970;54.976;73.248;2022-10-31T00:36:17;19.77;;;15.32;;
63818;SDS011;49970;54.976;73.248;2022-10-31T00:38:49;23.08;;;14.80;;
63818;SDS011;49970;54.976;73.248;2022-10-31T00:41:26;27.30;;;15.02;;
63818;SDS011;49970;54.976;73.248;2022-10-31T00:43:52;27.40;;;15.35;;
63818;SDS011;49970;54.976;73.248;2022-10-31T00:46:18;32.83;;;16.45;;
63818;SDS011;49970;54.976;73.248;2022-10-31T00:48:44;29.42;;;17.88;;
63818;SDS011;49970;54.976;73.248;2022-10-31T00:51:11;37.50;;;15.75;;
63818;SDS011;49970;54.976;73.248;2022-10-31T00:53:40;23.67;;;15.38;;
63818;SDS011;49970;54.976;73.248;2022-10-31T00:56:11;26.52;;;15.65;;
63818;SDS011;49970;54.976;73.248;2022-10-31T00:58:37;23.48;;;15.55;;
63818;SDS011;49970;54.976;73.248;2022-10-31T01:01:08;32.63;;;16.80;;
63818;SDS011;49970;54.976;73.248;2022-10-31T01:03:34;30.92;;;16.00;;
63818;SDS011;49970;54.976;73.248;2022-10-31T01:06:11;24.30;;;16.45;;
63818;SDS011;49970;54.976;73.248;2022-10-31T01:08:39;35.63;;;16.63;;
63818;SDS011;49970;54.976;73.248;2022-10-31T01:14:48;37.30;;;17.83;;
63818;SDS011;49970;54.976;73.248;2022-10-31T01:17:27;33.63;;;18.38;;
63818;SDS011;49970;54.976;73.248;2022-10-31T01:20:04;41.60;;;18.80;;
63818;SDS011;49970;54.976;73.248;2022-10-31T01:25:09;49.83;;;19.35;;
63818;SDS011;49970;54.976;73.248;2022-10-31T01:27:35;41.47;;;18.38;;
63818;SDS011;49970;54.976;73.248;2022-10-31T01:30:11;38.83;;;18.35;;
63818;SDS011;49970;54.976;73.248;2022-10-31T01:32:38;47.47;;;18.75;;
63818;SDS011;49970;54.976;73.248;2022-10-31T01:35:13;48.88;;;19.60;;
63818;SDS011;49970;54.976;73.248;2022-10-31T01:37:40;48.05;;;19.83;;
63818;SDS011;49970;54.976;73.248;2022-10-31T01:40:12;41.75;;;19.10;;
63818;SDS011;49970;54.976;73.248;2022-10-31T01:42:43;54.92;;;19.33;;
63818;SDS011;49970;54.976;73.248;2022-10-31T01:45:09;73.35;;;20.30;;
63818;SDS011;49970;54.976;73.248;2022-10-31T01:47:43;52.63;;;20.88;;
63818;SDS011;49970;54.976;73.248;2022-10-31T01:52:57;38.30;;;20.17;;
63818;SDS011;49970;54.976;73.248;2022-10-31T01:55:32;37.15;;;19.95;;
63818;SDS011;49970;54.976;73.248;2022-10-31T01:58:15;39.65;;;20.70;;
63818;SDS011;49970;54.976;73.248;2022-10-31T02:00:59;51.47;;;21.33;;
63818;SDS011;49970;54.976;73.248;2022-10-31T02:03:35;45.90;;;20.33;;
63818;SDS011;49970;54.976;73.248;2022-10-31T02:06:02;45.00;;;22.13;;
63818;SDS011;49970;54.976;73.248;2022-10-31T02:08:31;45.83;;;22.02;;
63818;SDS011;49970;54.976;73.248;2022-10-31T02:11:05;53.17;;;23.40;;
63818;SDS011;49970;54.976;73.248;2022-10-31T02:13:33;66.90;;;22.60;;
63818;SDS011;49970;54.976;73.248;2022-10-31T02:15:59;45.05;;;22.80;;
63818;SDS011;49970;54.976;73.248;2022-10-31T02:18:28;59.58;;;27.88;;
63818;SDS011;49970;54.976;73.248;2022-10-31T02:21:03;63.58;;;25.50;;
63818;SDS011;49970;54.976;73.248;2022-10-31T02:24:12;53.92;;;27.00;;
63818;SDS011;49970;54.976;73.248;2022-10-31T02:26:58;53.45;;;25.58;;
63818;SDS011;49970;54.976;73.248;2022-10-31T02:29:35;72.88;;;27.73;;
63818;SDS011;49970;54.976;73.248;2022-10-31T02:32:40;56.47;;;25.13;;
63818;SDS011;49970;54.976;73.248;2022-10-31T02:38:26;67.10;;;31.08;;
63818;SDS011;49970;54.976;73.248;2022-10-31T02:44:20;64.63;;;29.80;;
63818;SDS011;49970;54.976;73.248;2022-10-31T02:47:12;43.90;;;23.63;;
63818;SDS011;49970;54.976;73.248;2022-10-31T02:49:48;54.72;;;27.50;;
63818;SDS011;49970;54.976;73.248;2022-10-31T02:52:23;54.08;;;28.15;;
63818;SDS011;49970;54.976;73.248;2022-10-31T02:54:51;51.72;;;28.08;;
63818;SDS011;49970;54.976;73.248;2022-10-31T02:57:25;57.10;;;28.70;;
63818;SDS011;49970;54.976;73.248;2022-10-31T03:00:00;57.35;;;29.73;;
63818;SDS011;49970;54.976;73.248;2022-10-31T03:02:51;55.58;;;29.60;;
63818;SDS011;49970;54.976;73.248;2022-10-31T03:05:37;63.83;;;30.55;;
63818;SDS011;49970;54.976;73.248;2022-10-31T03:11:07;66.30;;;33.97;;
63818;SDS011;49970;54.976;73.248;2022-10-31T03:13:47;55.22;;;31.15;;
63818;SDS011;49970;54.976;73.248;2022-10-31T03:16:29;72.70;;;33.45;;
63818;SDS011;49970;54.976;73.248;2022-10-31T03:19:15;64.75;;;29.33;;
63818;SDS011;49970;54.976;73.248;2022-10-31T03:22:00;81.07;;;29.30;;
63818;SDS011;49970;54.976;73.248;2022-10-31T03:24:34;61.60;;;32.85;;
63818;SDS011;49970;54.976;73.248;2022-10-31T03:27:03;69.90;;;33.00;;
63818;SDS011;49970;54.976;73.248;2022-10-31T03:29:34;150.27;;;33.88;;
63818;SDS011;49970;54.976;73.248;2022-10-31T03:34:39;73.15;;;34.92;;
63818;SDS011;49970;54.976;73.248;2022-10-31T03:37:09;137.75;;;35.05;;
63818;SDS011;49970;54.976;73.248;2022-10-31T03:39:38;116.68;;;34.83;;
63818;SDS011;49970;54.976;73.248;2022-10-31T03:42:18;161.00;;;37.55;;
63818;SDS011;49970;54.976;73.248;2022-10-31T03:45:31;105.82;;;38.13;;
63818;SDS011;49970;54.976;73.248;2022-10-31T03:47:45;84.40;;;37.75;;
63818;SDS011;49970;54.976;73.248;2022-10-31T03:50:12;110.05;;;42.03;;
63818;SDS011;49970;54.976;73.248;2022-10-31T03:52:52;181.60;;;43.88;;
63818;SDS011;49970;54.976;73.248;2022-10-31T03:55:40;98.20;;;42.83;;
63818;SDS011;49970;54.976;73.248;2022-10-31T03:58:19;131.48;;;41.83;;
63818;SDS011;49970;54.976;73.248;2022-10-31T04:00:50;124.80;;;40.90;;
63818;SDS011;49970;54.976;73.248;2022-10-31T04:03:26;156.15;;;38.58;;
63818;SDS011;49970;54.976;73.248;2022-10-31T04:06:02;173.63;;;39.90;;
63818;SDS011;49970;54.976;73.248;2022-10-31T04:08:48;192.93;;;41.88;;
63818;SDS011;49970;54.976;73.248;2022-10-31T04:11:31;217.23;;;41.95;;
63818;SDS011;49970;54.976;73.248;2022-10-31T04:14:25;198.82;;;46.78;;
63818;SDS011;49970;54.976;73.248;2022-10-31T04:16:56;180.25;;;40.85;;
63818;SDS011;49970;54.976;73.248;2022-10-31T04:19:32;206.45;;;41.83;;
63818;SDS011;49970;54.976;73.248;2022-10-31T04:21:59;336.33;;;44.25;;
63818;SDS011;49970;54.976;73.248;2022-10-31T04:24:26;108.85;;;40.15;;
63818;SDS011;49970;54.976;73.248;2022-10-31T04:26:52;258.05;;;46.58;;
63818;SDS011;49970;54.976;73.248;2022-10-31T04:29:25;97.38;;;44.15;;
63818;SDS011;49970;54.976;73.248;2022-10-31T04:31:52;174.02;;;46.88;;
63818;SDS011;49970;54.976;73.248;2022-10-31T04:34:18;165.05;;;46.25;;
63818;SDS011;49970;54.976;73.248;2022-10-31T04:36:45;188.15;;;45.80;;
63818;SDS011;49970;54.976;73.248;2022-10-31T04:39:14;130.30;;;46.58;;
63818;SDS011;49970;54.976;73.248;2022-10-31T04:41:47;100.65;;;44.22;;
63818;SDS011;49970;54.976;73.248;2022-10-31T04:44:14;95.45;;;43.92;;
63818;SDS011;49970;54.976;73.248;2022-10-31T04:46:52;187.52;;;48.38;;
63818;SDS011;49970;54.976;73.248;2022-10-31T04:49:18;115.93;;;48.85;;
63818;SDS011;49970;54.976;73.248;2022-10-31T04:51:54;171.80;;;54.90;;
63818;SDS011;49970;54.976;73.248;2022-10-31T04:54:20;237.93;;;47.70;;
63818;SDS011;49970;54.976;73.248;2022-10-31T04:57:10;110.30;;;42.38;;
63818;SDS011;49970;54.976;73.248;2022-10-31T04:59:37;229.45;;;40.65;;
63818;SDS011;49970;54.976;73.248;2022-10-31T05:02:03;180.35;;;36.85;;
63818;SDS011;49970;54.976;73.248;2022-10-31T05:04:43;213.10;;;40.65;;
63818;SDS011;49970;54.976;73.248;2022-10-31T05:07:10;104.82;;;41.03;;
63818;SDS011;49970;54.976;73.248;2022-10-31T05:09:36;177.48;;;40.15;;
63818;SDS011;49970;54.976;73.248;2022-10-31T05:12:02;182.88;;;41.15;;
63818;SDS011;49970;54.976;73.248;2022-10-31T05:14:54;110.97;;;42.28;;
63818;SDS011;49970;54.976;73.248;2022-10-31T05:17:39;160.18;;;39.15;;
63818;SDS011;49970;54.976;73.248;2022-10-31T05:20:25;198.98;;;42.03;;
63818;SDS011;49970;54.976;73.248;2022-10-31T05:23:25;178.32;;;42.92;;
63818;SDS011;49970;54.976;73.248;2022-10-31T05:25:58;105.53;;;43.72;;
63818;SDS011;49970;54.976;73.248;2022-10-31T05:28:29;161.88;;;48.45;;
63818;SDS011;49970;54.976;73.248;2022-10-31T05:30:57;136.88;;;47.63;;
63818;SDS011;49970;54.976;73.248;2022-10-31T05:33:33;161.77;;;48.17;;
63818;SDS011;49970;54.976;73.248;2022-10-31T05:36:17;234.07;;;43.38;;
63818;SDS011;49970;54.976;73.248;2022-10-31T05:39:02;178.00;;;41.88;;
63818;SDS011;49970;54.976;73.248;2022-10-31T05:41:39;193.13;;;47.13;;
63818;SDS011;49970;54.976;73.248;2022-10-31T05:44:17;140.70;;;39.78;;
63818;SDS011;49970;54.976;73.248;2022-10-31T05:46:53;177.60;;;37.90;;
63818;SDS011;49970;54.976;73.248;2022-10-31T05:49:53;113.25;;;37.33;;
63818;SDS011;49970;54.976;73.248;2022-10-31T05:52:37;160.40;;;35.65;;
63818;SDS011;49970;54.976;73.248;2022-10-31T05:55:18;128.82;;;35.63;;
63818;SDS011;49970;54.976;73.248;2022-10-31T05:58:05;263.23;;;33.17;;
63818;SDS011;49970;54.976;73.248;2022-10-31T06:00:34;287.55;;;31.83;;
63818;SDS011;49970;54.976;73.248;2022-10-31T06:03:15;127.78;;;31.98;;
63818;SDS011;49970;54.976;73.248;2022-10-31T06:05:56;217.27;;;34.70;;
63818;SDS011;49970;54.976;73.248;2022-10-31T06:08:28;187.15;;;35.45;;
63818;SDS011;49970;54.976;73.248;2022-10-31T06:10:56;126.50;;;31.77;;
63818;SDS011;49970;54.976;73.248;2022-10-31T06:13:42;216.85;;;32.13;;
63818;SDS011;49970;54.976;73.248;2022-10-31T06:16:16;104.43;;;28.67;;
63818;SDS011;49970;54.976;73.248;2022-10-31T06:18:45;68.57;;;27.42;;
63818;SDS011;49970;54.976;73.248;2022-10-31T06:21:12;169.27;;;28.70;;
63818;SDS011;49970;54.976;73.248;2022-10-31T06:23:48;141.18;;;27.73;;
63818;SDS011;49970;54.976;73.248;2022-10-31T06:26:53;114.68;;;25.58;;
63818;SDS011;49970;54.976;73.248;2022-10-31T06:29:26;96.50;;;26.52;;
63818;SDS011;49970;54.976;73.248;2022-10-31T06:32:09;86.43;;;24.95;;
63818;SDS011;49970;54.976;73.248;2022-10-31T06:34:41;91.32;;;27.23;;
63818;SDS011;49970;54.976;73.248;2022-10-31T06:37:09;62.25;;;22.73;;
63818;SDS011;49970;54.976;73.248;2022-10-31T06:39:38;59.60;;;25.27;;
63818;SDS011;49970;54.976;73.248;2022-10-31T06:42:05;87.13;;;28.58;;
63818;SDS011;49970;54.976;73.248;2022-10-31T06:44:32;68.53;;;24.65;;
63818;SDS011;49970;54.976;73.248;2022-10-31T06:46:59;39.60;;;24.27;;
63818;SDS011;49970;54.976;73.248;2022-10-31T06:49:59;62.40;;;27.92;;
63818;SDS011;49970;54.976;73.248;2022-10-31T06:52:26;43.53;;;26.02;;
63818;SDS011;49970;54.976;73.248;2022-10-31T06:54:52;57.95;;;25.17;;
63818;SDS011;49970;54.976;73.248;2022-10-31T06:57:20;49.60;;;25.42;;
63818;SDS011;49970;54.976;73.248;2022-10-31T06:59:47;53.13;;;25.98;;
63818;SDS011;49970;54.976;73.248;2022-10-31T07:02:13;42.70;;;25.10;;
63818;SDS011;49970;54.976;73.248;2022-10-31T07:04:41;34.22;;;21.98;;
63818;SDS011;49970;54.976;73.248;2022-10-31T07:07:11;41.70;;;23.77;;
63818;SDS011;49970;54.976;73.248;2022-10-31T07:09:38;47.95;;;24.90;;
63818;SDS011;49970;54.976;73.248;2022-10-31T07:12:06;55.47;;;25.45;;
63818;SDS011;49970;54.976;73.248;2022-10-31T07:14:36;36.65;;;23.05;;
63818;SDS011;49970;54.976;73.248;2022-10-31T07:17:03;86.88;;;24.13;;
63818;SDS011;49970;54.976;73.248;2022-10-31T07:19:37;45.95;;;24.33;;
63818;SDS011;49970;54.976;73.248;2022-10-31T07:22:03;38.45;;;22.67;;
63818;SDS011;49970;54.976;73.248;2022-10-31T07:24:39;40.75;;;23.15;;
63818;SDS011;49970;54.976;73.248;2022-10-31T07:27:28;52.63;;;24.02;;
63818;SDS011;49970;54.976;73.248;2022-10-31T07:29:54;47.05;;;22.33;;
63818;SDS011;49970;54.976;73.248;2022-10-31T07:32:21;34.85;;;22.23;;
63818;SDS011;49970;54.976;73.248;2022-10-31T07:34:52;45.92;;;21.77;;
63818;SDS011;49970;54.976;73.248;2022-10-31T07:37:21;38.85;;;22.38;;
63818;SDS011;49970;54.976;73.248;2022-10-31T07:39:47;37.72;;;22.65;;
63818;SDS011;49970;54.976;73.248;2022-10-31T07:42:15;50.05;;;24.15;;
63818;SDS011;49970;54.976;73.248;2022-10-31T07:44:44;32.97;;;22.65;;
63818;SDS011;49970;54.976;73.248;2022-10-31T07:47:28;39.63;;;22.30;;
63818;SDS011;49970;54.976;73.248;2022-10-31T07:50:17;39.50;;;22.73;;
63818;SDS011;49970;54.976;73.248;2022-10-31T07:53:23;41.15;;;24.65;;
63818;SDS011;49970;54.976;73.248;2022-10-31T07:55:53;42.05;;;25.63;;
63818;SDS011;49970;54.976;73.248;2022-10-31T07:58:19;43.05;;;25.83;;
63818;SDS011;49970;54.976;73.248;2022-10-31T08:00:46;39.35;;;24.00;;
63818;SDS011;49970;54.976;73.248;2022-10-31T08:03:18;36.65;;;24.60;;
63818;SDS011;49970;54.976;73.248;2022-10-31T08:06:14;50.40;;;26.23;;
63818;SDS011;49970;54.976;73.248;2022-10-31T08:09:03;38.22;;;24.80;;
63818;SDS011;49970;54.976;73.248;2022-10-31T08:11:30;40.40;;;20.50;;
63818;SDS011;49970;54.976;73.248;2022-10-31T08:13:57;39.08;;;22.00;;
63818;SDS011;49970;54.976;73.248;2022-10-31T08:16:24;37.92;;;23.75;;
63818;SDS011;49970;54.976;73.248;2022-10-31T08:19:13;46.03;;;22.50;;
63818;SDS011;49970;54.976;73.248;2022-10-31T08:21:58;37.80;;;22.88;;
63818;SDS011;49970;54.976;73.248;2022-10-31T08:24:54;41.80;;;24.13;;
63818;SDS011;49970;54.976;73.248;2022-10-31T08:27:26;33.92;;;22.13;;
63818;SDS011;49970;54.976;73.248;2022-10-31T08:29:54;35.72;;;21.30;;
63818;SDS011;49970;54.976;73.248;2022-10-31T08:32:22;31.70;;;21.95;;
63818;SDS011;49970;54.976;73.248;2022-10-31T08:35:07;38.10;;;21.15;;
63818;SDS011;49970;54.976;73.248;2022-10-31T08:37:52;33.97;;;22.48;;
63818;SDS011;49970;54.976;73.248;2022-10-31T08:40:31;38.28;;;22.10;;
63818;SDS011;49970;54.976;73.248;2022-10-31T08:43:03;33.67;;;21.13;;
63818;SDS011;49970;54.976;73.248;2022-10-31T08:45:37;40.97;;;20.38;;
63818;SDS011;49970;54.976;73.248;2022-10-31T08:48:11;32.83;;;23.65;;
63818;SDS011;49970;54.976;73.248;2022-10-31T08:50:50;37.75;;;23.23;;
63818;SDS011;49970;54.976;73.248;2022-10-31T08:53:26;38.70;;;22.75;;
63818;SDS011;49970;54.976;73.248;2022-10-31T08:56:15;49.35;;;24.52;;
63818;SDS011;49970;54.976;73.248;2022-10-31T08:58:42;37.25;;;25.83;;
63818;SDS011;49970;54.976;73.248;2022-10-31T09:01:09;43.60;;;27.25;;
63818;SDS011;49970;54.976;73.248;2022-10-31T09:03:45;39.35;;;27.15;;
63818;SDS011;49970;54.976;73.248;2022-10-31T09:06:22;51.00;;;30.52;;
63818;SDS011;49970;54.976;73.248;2022-10-31T09:08:54;48.03;;;28.50;;
63818;SDS011;49970;54.976;73.248;2022-10-31T09:11:29;39.90;;;25.40;;
63818;SDS011;49970;54.976;73.248;2022-10-31T09:14:16;42.10;;;24.67;;
63818;SDS011;49970;54.976;73.248;2022-10-31T09:17:01;44.90;;;23.13;;
63818;SDS011;49970;54.976;73.248;2022-10-31T09:19:49;41.00;;;22.83;;
63818;SDS011;49970;54.976;73.248;2022-10-31T09:22:15;43.95;;;23.67;;
63818;SDS011;49970;54.976;73.248;2022-10-31T09:24:43;57.58;;;23.35;;
63818;SDS011;49970;54.976;73.248;2022-10-31T09:27:19;38.55;;;24.83;;
63818;SDS011;49970;54.976;73.248;2022-10-31T09:29:47;34.10;;;23.00;;
63818;SDS011;49970;54.976;73.248;2022-10-31T09:32:13;37.08;;;24.02;;
63818;SDS011;49970;54.976;73.248;2022-10-31T09:34:54;38.08;;;23.90;;
63818;SDS011;49970;54.976;73.248;2022-10-31T09:37:24;36.58;;;23.70;;
63818;SDS011;49970;54.976;73.248;2022-10-31T09:39:51;58.35;;;23.35;;
63818;SDS011;49970;54.976;73.248;2022-10-31T09:51:19;27.35;;;19.83;;
63818;SDS011;49970;54.976;73.248;2022-10-31T09:56:49;42.55;;;24.13;;
63818;SDS011;49970;54.976;73.248;2022-10-31T09:59:21;32.60;;;22.33;;
63818;SDS011;49970;54.976;73.248;2022-10-31T10:02:13;35.95;;;23.05;;
63818;SDS011;49970;54.976;73.248;2022-10-31T10:16:27;49.72;;;28.20;;
63818;SDS011;49970;54.976;73.248;2022-10-31T10:19:32;43.60;;;26.58;;
63818;SDS011;49970;54.976;73.248;2022-10-31T10:30:22;46.97;;;30.02;;
63818;SDS011;49970;54.976;73.248;2022-10-31T10:33:38;49.40;;;30.70;;
63818;SDS011;49970;54.976;73.248;2022-10-31T10:35:50;64.63;;;32.50;;
63818;SDS011;49970;54.976;73.248;2022-10-31T10:41:16;46.35;;;29.52;;
63818;SDS011;49970;54.976;73.248;2022-10-31T10:43:44;45.53;;;30.15;;
63818;SDS011;49970;54.976;73.248;2022-10-31T10:49:16;95.82;;;47.15;;
63818;SDS011;49970;54.976;73.248;2022-10-31T10:52:00;68.82;;;36.63;;
63818;SDS011;49970;54.976;73.248;2022-10-31T10:57:47;58.28;;;31.23;;
63818;SDS011;49970;54.976;73.248;2022-10-31T11:00:19;63.03;;;33.22;;
63818;SDS011;49970;54.976;73.248;2022-10-31T11:02:46;55.50;;;29.27;;
63818;SDS011;49970;54.976;73.248;2022-10-31T11:05:16;50.67;;;31.05;;
63818;SDS011;49970;54.976;73.248;2022-10-31T11:07:53;56.90;;;31.90;;
63818;SDS011;49970;54.976;73.248;2022-10-31T11:10:29;57.38;;;29.35;;
63818;SDS011;49970;54.976;73.248;2022-10-31T11:13:37;49.08;;;29.90;;
63818;SDS011;49970;54.976;73.248;2022-10-31T11:15:59;47.67;;;28.30;;
63818;SDS011;49970;54.976;73.248;2022-10-31T11:18:29;47.08;;;28.33;;
63818;SDS011;49970;54.976;73.248;2022-10-31T11:21:00;51.80;;;29.92;;
63818;SDS011;49970;54.976;73.248;2022-10-31T11:23:29;54.03;;;29.42;;
63818;SDS011;49970;54.976;73.248;2022-10-31T11:25:56;47.08;;;31.00;;
63818;SDS011;49970;54.976;73.248;2022-10-31T11:28:35;53.03;;;33.53;;
63818;SDS011;49970;54.976;73.248;2022-10-31T11:31:08;55.45;;;33.38;;
63818;SDS011;49970;54.976;73.248;2022-10-31T11:33:44;63.10;;;33.58;;
63818;SDS011;49970;54.976;73.248;2022-10-31T11:36:17;58.35;;;34.58;;
63818;SDS011;49970;54.976;73.248;2022-10-31T11:38:58;60.45;;;33.60;;
63818;SDS011;49970;54.976;73.248;2022-10-31T11:41:31;59.38;;;35.45;;
63818;SDS011;49970;54.976;73.248;2022-10-31T11:44:04;61.08;;;37.65;;
63818;SDS011;49970;54.976;73.248;2022-10-31T11:46:57;59.47;;;36.70;;
63818;SDS011;49970;54.976;73.248;2022-10-31T11:49:36;68.35;;;40.55;;
63818;SDS011;49970;54.976;73.248;2022-10-31T11:52:12;75.60;;;39.80;;
63818;SDS011;49970;54.976;73.248;2022-10-31T11:57:32;77.10;;;39.88;;
63818;SDS011;49970;54.976;73.248;2022-10-31T12:00:21;65.97;;;38.53;;
63818;SDS011;49970;54.976;73.248;2022-10-31T12:03:04;67.82;;;37.55;;
63818;SDS011;49970;54.976;73.248;2022-10-31T12:06:34;83.53;;;36.58;;
63818;SDS011;49970;54.976;73.248;2022-10-31T12:09:27;87.80;;;39.13;;
63818;SDS011;49970;54.976;73.248;2022-10-31T12:17:17;78.28;;;37.47;;
63818;SDS011;49970;54.976;73.248;2022-10-31T12:42:59;138.98;;;55.00;;
63818;SDS011;49970;54.976;73.248;2022-10-31T12:45:18;131.38;;;55.03;;
63818;SDS011;49970;54.976;73.248;2022-10-31T12:48:10;135.88;;;58.05;;
63818;SDS011;49970;54.976;73.248;2022-10-31T12:53:41;154.60;;;67.32;;
63818;SDS011;49970;54.976;73.248;2022-10-31T12:56:30;150.48;;;66.55;;
63818;SDS011;49970;54.976;73.248;2022-10-31T13:01:34;128.57;;;61.53;;
63818;SDS011;49970;54.976;73.248;2022-10-31T13:04:24;128.77;;;58.40;;
63818;SDS011;49970;54.976;73.248;2022-10-31T13:07:05;131.80;;;65.53;;
63818;SDS011;49970;54.976;73.248;2022-10-31T13:10:01;140.13;;;71.65;;
63818;SDS011;49970;54.976;73.248;2022-10-31T13:12:31;147.40;;;70.85;;
63818;SDS011;49970;54.976;73.248;2022-10-31T13:17:51;149.82;;;74.25;;
63818;SDS011;49970;54.976;73.248;2022-10-31T13:23:08;145.90;;;67.38;;
63818;SDS011;49970;54.976;73.248;2022-10-31T13:25:49;119.05;;;64.28;;
63818;SDS011;49970;54.976;73.248;2022-10-31T13:28:34;132.50;;;60.78;;
63818;SDS011;49970;54.976;73.248;2022-10-31T13:31:30;126.40;;;58.40;;
63818;SDS011;49970;54.976;73.248;2022-10-31T13:33:57;111.10;;;58.42;;
63818;SDS011;49970;54.976;73.248;2022-10-31T13:36:33;113.63;;;54.13;;
63818;SDS011;49970;54.976;73.248;2022-10-31T13:44:46;140.57;;;59.88;;
63818;SDS011;49970;54.976;73.248;2022-10-31T13:47:25;140.57;;;60.35;;
63818;SDS011;49970;54.976;73.248;2022-10-31T13:50:04;137.88;;;63.70;;
63818;SDS011;49970;54.976;73.248;2022-10-31T13:52:51;164.77;;;64.60;;
63818;SDS011;49970;54.976;73.248;2022-10-31T13:55:37;149.15;;;68.43;;
63818;SDS011;49970;54.976;73.248;2022-10-31T14:00:57;157.40;;;66.35;;
63818;SDS011;49970;54.976;73.248;2022-10-31T14:03:42;142.77;;;63.85;;
63818;SDS011;49970;54.976;73.248;2022-10-31T14:06:15;138.00;;;68.57;;
63818;SDS011;49970;54.976;73.248;2022-10-31T14:10:24;133.55;;;63.00;;
63818;SDS011;49970;54.976;73.248;2022-10-31T14:13:15;150.75;;;77.55;;
63818;SDS011;49970;54.976;73.248;2022-10-31T14:15:41;169.00;;;80.68;;
63818;SDS011;49970;54.976;73.248;2022-10-31T14:18:25;148.27;;;82.00;;
63818;SDS011;49970;54.976;73.248;2022-10-31T14:20:57;133.10;;;72.32;;
63818;SDS011;49970;54.976;73.248;2022-10-31T14:28:51;112.53;;;57.95;;
63818;SDS011;49970;54.976;73.248;2022-10-31T14:31:37;109.28;;;55.70;;
63818;SDS011;49970;54.976;73.248;2022-10-31T14:34:06;104.25;;;52.00;;
63818;SDS011;49970;54.976;73.248;2022-10-31T14:37:12;103.85;;;52.75;;
63818;SDS011;49970;54.976;73.248;2022-10-31T14:48:14;120.68;;;56.30;;
63818;SDS011;49970;54.976;73.248;2022-10-31T14:51:18;109.15;;;52.70;;
63818;SDS011;49970;54.976;73.248;2022-10-31T14:53:48;110.57;;;51.65;;
63818;SDS011;49970;54.976;73.248;2022-10-31T14:56:19;105.03;;;51.38;;
63818;SDS011;49970;54.976;73.248;2022-10-31T14:58:52;105.38;;;50.63;;
63818;SDS011;49970;54.976;73.248;2022-10-31T15:01:55;119.18;;;55.80;;
63818;SDS011;49970;54.976;73.248;2022-10-31T15:04:23;134.18;;;59.67;;
63818;SDS011;49970;54.976;73.248;2022-10-31T15:07:47;116.75;;;56.08;;
63818;SDS011;49970;54.976;73.248;2022-10-31T15:09:54;115.90;;;57.08;;
63818;SDS011;49970;54.976;73.248;2022-10-31T15:12:33;113.22;;;54.58;;
63818;SDS011;49970;54.976;73.248;2022-10-31T15:15:13;94.75;;;50.97;;
63818;SDS011;49970;54.976;73.248;2022-10-31T15:17:45;99.95;;;48.33;;
63818;SDS011;49970;54.976;73.248;2022-10-31T15:20:22;94.25;;;44.78;;
63818;SDS011;49970;54.976;73.248;2022-10-31T15:22:54;91.90;;;44.58;;
63818;SDS011;49970;54.976;73.248;2022-10-31T15:28:15;89.85;;;44.25;;
63818;SDS011;49970;54.976;73.248;2022-10-31T15:30:57;98.30;;;48.53;;
63818;SDS011;49970;54.976;73.248;2022-10-31T15:33:41;102.30;;;48.08;;
63818;SDS011;49970;54.976;73.248;2022-10-31T15:36:21;116.95;;;51.47;;
63818;SDS011;49970;54.976;73.248;2022-10-31T15:38:49;107.35;;;47.67;;
63818;SDS011;49970;54.976;73.248;2022-10-31T15:41:27;116.68;;;50.75;;
63818;SDS011;49970;54.976;73.248;2022-10-31T15:44:00;140.75;;;58.58;;
63818;SDS011;49970;54.976;73.248;2022-10-31T15:46:37;141.18;;;64.60;;
63818;SDS011;49970;54.976;73.248;2022-10-31T15:49:03;146.88;;;69.70;;
63818;SDS011;49970;54.976;73.248;2022-10-31T15:51:46;132.55;;;61.25;;
63818;SDS011;49970;54.976;73.248;2022-10-31T15:54:13;128.18;;;58.38;;
63818;SDS011;49970;54.976;73.248;2022-10-31T15:56:39;128.30;;;59.28;;
63818;SDS011;49970;54.976;73.248;2022-10-31T15:59:16;143.55;;;60.20;;
63818;SDS011;49970;54.976;73.248;2022-10-31T16:02:00;118.13;;;53.05;;
63818;SDS011;49970;54.976;73.248;2022-10-31T16:04:28;122.65;;;58.72;;
63818;SDS011;49970;54.976;73.248;2022-10-31T16:07:14;118.18;;;57.33;;
63818;SDS011;49970;54.976;73.248;2022-10-31T16:09:49;127.90;;;60.38;;
63818;SDS011;49970;54.976;73.248;2022-10-31T16:12:16;163.48;;;67.75;;
63818;SDS011;49970;54.976;73.248;2022-10-31T16:14:43;161.95;;;70.78;;
63818;SDS011;49970;54.976;73.248;2022-10-31T16:17:16;146.27;;;66.95;;
63818;SDS011;49970;54.976;73.248;2022-10-31T16:20:00;149.45;;;64.95;;
63818;SDS011;49970;54.976;73.248;2022-10-31T16:22:30;124.88;;;54.10;;
63818;SDS011;49970;54.976;73.248;2022-10-31T16:27:38;112.65;;;51.67;;
63818;SDS011;49970;54.976;73.248;2022-10-31T16:39:03;117.05;;;54.47;;
63818;SDS011;49970;54.976;73.248;2022-10-31T16:41:30;85.38;;;43.38;;
63818;SDS011;49970;54.976;73.248;2022-10-31T16:44:00;94.70;;;43.20;;
63818;SDS011;49970;54.976;73.248;2022-10-31T16:46:29;76.55;;;42.83;;
63818;SDS011;49970;54.976;73.248;2022-10-31T16:48:56;86.53;;;43.08;;
63818;SDS011;49970;54.976;73.248;2022-10-31T16:51:23;100.90;;;43.88;;
63818;SDS011;49970;54.976;73.248;2022-10-31T16:53:51;101.72;;;47.53;;
63818;SDS011;49970;54.976;73.248;2022-10-31T16:56:25;86.15;;;42.85;;
63818;SDS011;49970;54.976;73.248;2022-10-31T16:58:57;93.00;;;46.70;;
63818;SDS011;49970;54.976;73.248;2022-10-31T17:01:27;93.45;;;46.55;;
63818;SDS011;49970;54.976;73.248;2022-10-31T17:03:53;102.38;;;49.38;;
63818;SDS011;49970;54.976;73.248;2022-10-31T17:06:20;146.63;;;59.03;;
63818;SDS011;49970;54.976;73.248;2022-10-31T17:08:46;156.82;;;62.58;;
63818;SDS011;49970;54.976;73.248;2022-10-31T17:11:14;119.88;;;50.50;;
63818;SDS011;49970;54.976;73.248;2022-10-31T17:13:55;87.97;;;44.70;;